Time;durP1;ratioP1;P1;durP2;ratioP2;P2;SDS_P1;SDS_P2;PMS_P1;PMS_P2;Temp;Humidity;BMP_temperature;BMP_pressure;BME280_temperature;BME280_humidity;BME280_pressure;Samples;Min_cycle;Max_cycle;Signal;HPM_P1;HPM_P2
2022/04/06 00:02:27;;;;;;;12.00;8.05;;;;;;;8.57;100.00;100569.31;5217131;28;20064;-81
2022/04/06 00:04:57;;;;;;;12.13;6.50;;;;;;;8.56;100.00;100579.25;5217176;28;20028;-83
2022/04/06 00:07:27;;;;;;;8.93;6.65;;;;;;;8.50;100.00;100564.09;5217564;28;20029;-83
2022/04/06 00:09:58;;;;;;;9.70;8.77;;;;;;;8.41;100.00;100552.13;5216941;28;20037;-83
2022/04/06 00:12:28;;;;;;;10.40;6.68;;;;;;;8.55;100.00;100579.50;5217141;28;20021;-83
2022/04/06 00:14:59;;;;;;;11.43;6.75;;;;;;;8.20;100.00;100526.00;5216581;28;20021;-83
2022/04/06 00:17:29;;;;;;;8.75;6.72;;;;;;;8.37;100.00;100541.06;5216771;28;20048;-83
2022/04/06 00:19:59;;;;;;;18.42;8.45;;;;;;;8.51;100.00;100570.31;5198952;28;20044;-83
2022/04/06 00:22:30;;;;;;;17.75;8.32;;;;;;;8.49;100.00;100565.16;5216729;28;20033;-83
2022/04/06 00:25:00;;;;;;;8.40;7.28;;;;;;;8.49;100.00;100567.84;5216838;28;20159;-83
2022/04/06 00:27:31;;;;;;;8.88;6.20;;;;;;;8.44;100.00;100552.44;5199317;28;20025;-83
2022/04/06 00:30:03;;;;;;;15.25;7.30;;;;;;;8.49;100.00;100562.47;5215062;28;20504;-84
2022/04/06 00:32:34;;;;;;;12.35;7.78;;;;;;;8.48;100.00;100558.16;5217132;28;20125;-84
2022/04/06 00:38:03;;;;;;;16.42;7.15;;;;;;;8.40;100.00;100550.50;5216932;28;20059;-83
2022/04/06 00:40:35;;;;;;;13.48;7.47;;;;;;;8.14;100.00;100499.03;5198481;28;20025;-84
2022/04/06 00:43:11;;;;;;;12.82;7.20;;;;;;;8.45;100.00;100537.13;5216306;28;20057;-84
2022/04/06 00:45:42;;;;;;;18.05;8.35;;;;;;;8.35;100.00;100532.44;5215663;28;20029;-83
2022/04/06 00:48:13;;;;;;;10.80;7.18;;;;;;;8.14;100.00;100499.03;5216800;28;20087;-84
2022/04/06 00:50:44;;;;;;;20.42;9.30;;;;;;;8.26;100.00;100515.06;5216154;28;20025;-83
2022/04/06 00:53:15;;;;;;;12.13;7.07;;;;;;;8.19;100.00;100517.13;5216177;28;20033;-83
2022/04/06 00:55:45;;;;;;;11.90;7.60;;;;;;;8.37;100.00;100535.66;5215508;28;20037;-83
2022/04/06 00:58:17;;;;;;;10.57;7.43;;;;;;;8.16;100.00;100495.28;5216355;28;20017;-83
2022/04/06 01:00:47;;;;;;;13.95;5.80;;;;;;;8.40;100.00;100539.75;5216174;28;20030;-83
2022/04/06 01:03:17;;;;;;;14.07;6.95;;;;;;;8.04;100.00;100479.28;5216049;28;20052;-83
2022/04/06 01:05:48;;;;;;;7.57;6.07;;;;;;;8.12;100.00;100489.56;5216550;28;20088;-83
2022/04/06 01:08:18;;;;;;;14.25;7.80;;;;;;;8.20;100.00;100516.06;5216154;28;20029;-83
2022/04/06 01:10:49;;;;;;;12.88;6.53;;;;;;;8.31;100.00;100531.28;5216731;28;20017;-83
2022/04/06 01:13:20;;;;;;;12.13;7.35;;;;;;;8.19;100.00;100516.31;5216373;28;20036;-83
2022/04/06 01:15:50;;;;;;;9.68;5.90;;;;;;;7.93;100.00;100472.13;5214714;28;20034;-83
2022/04/06 01:18:20;;;;;;;14.20;6.75;;;;;;;8.27;100.00;100534.72;5214660;28;20078;-84
2022/04/06 01:20:51;;;;;;;7.18;6.63;;;;;;;8.24;100.00;100524.44;5198265;28;20109;-84
2022/04/06 01:23:21;;;;;;;8.35;6.18;;;;;;;7.99;100.00;100498.84;5198194;28;20473;-82
2022/04/06 01:25:52;;;;;;;8.15;7.40;;;;;;;8.14;100.00;100519.72;5215988;28;20030;-83
2022/04/06 01:28:22;;;;;;;9.75;7.72;;;;;;;7.93;100.00;100490.94;5216360;28;20044;-83
2022/04/06 01:30:53;;;;;;;17.27;8.20;;;;;;;8.08;100.00;100510.78;5218108;28;20053;-84
2022/04/06 01:33:23;;;;;;;11.55;7.63;;;;;;;7.99;100.00;100500.72;5217379;28;20029;-83
2022/04/06 01:35:55;;;;;;;10.02;7.85;;;;;;;7.75;100.00;100459.78;5216979;28;20470;-83
2022/04/06 01:38:27;;;;;;;9.60;7.05;;;;;;;8.01;100.00;100504.78;5217094;28;20048;-84
2022/04/06 01:40:57;;;;;;;10.73;6.47;;;;;;;7.95;100.00;100497.69;5215410;28;20029;-83
2022/04/06 01:43:28;;;;;;;11.60;6.60;;;;;;;7.83;100.00;100474.66;5198212;28;20026;-83
2022/04/06 01:45:59;;;;;;;16.40;6.22;;;;;;;7.99;100.00;100506.91;5217837;28;20025;-83
2022/04/06 01:48:30;;;;;;;13.60;7.13;;;;;;;7.91;100.00;100490.38;5217936;28;20025;-83
2022/04/06 01:53:50;;;;;;;9.47;6.57;;;;;;;8.07;100.00;100502.97;5215698;28;20106;-83
2022/04/06 01:56:20;;;;;;;8.73;5.93;;;;;;;7.99;100.00;100484.56;5218025;28;20268;-83
2022/04/06 01:58:51;;;;;;;5.00;4.47;;;;;;;8.05;100.00;100503.22;5200189;28;20029;-83
2022/04/06 02:01:22;;;;;;;6.03;5.22;;;;;;;8.03;100.00;100491.91;5199470;28;20022;-83
2022/04/06 02:03:52;;;;;;;7.10;5.65;;;;;;;8.03;100.00;100496.47;5217629;28;20444;-84
2022/04/06 02:06:23;;;;;;;8.27;4.97;;;;;;;7.80;100.00;100449.88;5217482;28;20087;-83
2022/04/06 02:08:53;;;;;;;18.95;5.80;;;;;;;7.69;100.00;100437.38;5200829;28;20053;-84
2022/04/06 02:11:24;;;;;;;5.55;5.03;;;;;;;7.76;100.00;100443.41;5201216;28;20036;-83
2022/04/06 02:13:54;;;;;;;8.60;5.15;;;;;;;7.76;100.00;100447.97;5200860;28;20397;-83
2022/04/06 02:16:25;;;;;;;13.95;5.70;;;;;;;8.01;100.00;100488.66;5237524;22;20047;-65
2022/04/06 02:18:56;;;;;;;8.07;4.82;;;;;;;8.01;100.00;100477.88;5225879;28;20025;-65
2022/04/06 02:21:27;;;;;;;4.55;4.25;;;;;;;8.03;100.00;100485.72;5226061;28;20024;-63
2022/04/06 02:23:58;;;;;;;8.30;5.28;;;;;;;7.97;100.00;100467.88;5225644;28;20035;-62
2022/04/06 02:26:28;;;;;;;12.73;5.90;;;;;;;7.94;100.00;100463.81;5227303;28;20028;-65
2022/04/06 02:29:02;;;;;;;15.43;7.45;;;;;;;8.02;100.00;100476.84;5242620;28;20032;-65
2022/04/06 02:31:32;;;;;;;7.30;4.55;;;;;;;8.00;100.00;100470.88;5242549;28;20028;-64
2022/04/06 02:34:03;;;;;;;8.10;6.65;;;;;;;8.00;100.00;100470.88;5225527;28;20098;-64
2022/04/06 02:36:34;;;;;;;6.95;5.00;;;;;;;7.98;100.00;100464.94;5227255;28;20538;-65
2022/04/06 02:39:05;;;;;;;5.13;4.07;;;;;;;8.03;100.00;100461.50;5242681;28;20166;-64
2022/04/06 02:41:35;;;;;;;6.82;5.88;;;;;;;8.05;100.00;100470.97;5225750;28;20107;-65
2022/04/06 02:44:06;;;;;;;6.30;5.25;;;;;;;8.02;100.00;100468.75;5225590;28;20036;-64
2022/04/06 02:46:36;;;;;;;9.93;5.97;;;;;;;8.04;100.00;100469.31;5242271;28;20070;-64
2022/04/06 02:49:07;;;;;;;12.57;5.05;;;;;;;8.05;100.00;100472.84;5225509;28;20501;-65
2022/04/06 02:51:38;;;;;;;4.85;4.47;;;;;;;8.06;100.00;100467.22;5225607;28;20143;-65
2022/04/06 02:54:08;;;;;;;14.90;5.45;;;;;;;8.05;100.00;100467.44;5225095;28;20028;-64
2022/04/06 02:56:39;;;;;;;10.68;5.95;;;;;;;7.94;100.00;100444.16;5225531;28;20479;-64
2022/04/06 02:59:10;;;;;;;11.05;5.93;;;;;;;8.06;100.00;100461.00;5225389;28;20036;-65
2022/04/06 03:01:40;;;;;;;6.03;5.10;;;;;;;8.03;100.00;100448.88;5226539;28;20657;-65
2022/04/06 03:04:10;;;;;;;13.90;7.97;;;;;;;8.05;100.00;100454.81;5224401;28;20380;-64
2022/04/06 03:06:41;;;;;;;7.20;6.30;;;;;;;8.03;100.00;100448.88;5241900;28;20020;-64
2022/04/06 03:09:11;;;;;;;8.45;6.00;;;;;;;7.56;100.00;100370.53;5225243;28;20033;-64
2022/04/06 03:11:42;;;;;;;12.52;6.95;;;;;;;8.09;100.00;100455.94;5226370;28;20025;-65
2022/04/06 03:14:12;;;;;;;5.32;5.03;;;;;;;8.10;100.00;100454.88;5224679;28;20020;-64
2022/04/06 03:16:43;;;;;;;9.82;5.72;;;;;;;7.95;100.00;100419.72;5225081;28;20044;-65
2022/04/06 03:19:13;;;;;;;15.52;7.28;;;;;;;8.08;100.00;100438.16;5226353;28;20071;-64
2022/04/06 03:21:44;;;;;;;12.82;9.07;;;;;;;8.04;100.00;100433.56;5241429;28;20120;-64
2022/04/06 03:24:14;;;;;;;16.23;8.38;;;;;;;8.06;100.00;100443.00;5224576;28;20106;-64
2022/04/06 03:26:44;;;;;;;8.80;7.53;;;;;;;8.02;100.00;100435.69;5224585;28;20479;-64
2022/04/06 03:29:15;;;;;;;10.02;8.27;;;;;;;8.07;100.00;100439.25;5224547;28;20138;-64
2022/04/06 03:31:46;;;;;;;10.30;7.97;;;;;;;8.09;100.00;100434.41;5224630;28;20443;-64
2022/04/06 03:34:17;;;;;;;13.73;8.18;;;;;;;7.95;100.00;100406.28;5224034;28;20462;-65
2022/04/06 03:36:47;;;;;;;16.30;8.20;;;;;;;8.12;100.00;100433.91;5224473;28;20025;-64
2022/04/06 03:39:18;;;;;;;8.32;7.57;;;;;;;8.11;100.00;100424.22;5224331;28;20241;-65
2022/04/06 03:41:48;;;;;;;15.20;7.38;;;;;;;8.11;100.00;100418.84;5240956;28;20025;-65
2022/04/06 03:44:19;;;;;;;14.45;7.50;;;;;;;8.14;100.00;100426.41;5223919;28;20033;-63
2022/04/06 03:46:49;;;;;;;19.83;9.07;;;;;;;8.12;100.00;100425.03;5224009;28;20021;-63
2022/04/06 03:49:20;;;;;;;14.13;9.25;;;;;;;7.99;100.00;100409.28;5224172;28;20037;-65
2022/04/06 03:51:50;;;;;;;17.63;8.90;;;;;;;8.11;100.00;100426.09;5224013;28;20028;-65
2022/04/06 03:54:21;;;;;;;12.07;9.13;;;;;;;8.10;100.00;100433.34;5223678;28;20288;-65
2022/04/06 03:56:51;;;;;;;12.38;8.00;;;;;;;8.06;100.00;100421.50;5224026;28;20052;-64
2022/04/06 03:59:21;;;;;;;7.00;6.13;;;;;;;8.08;100.00;100432.00;5223837;28;20478;-65
2022/04/06 04:01:52;;;;;;;8.82;6.40;;;;;;;8.05;100.00;100411.78;5223969;28;20021;-64
2022/04/06 04:04:22;;;;;;;22.00;8.15;;;;;;;8.07;100.00;100425.81;5223580;28;20501;-65
2022/04/06 04:06:53;;;;;;;10.90;7.22;;;;;;;8.09;100.00;100409.41;5223533;28;20020;-63
2022/04/06 04:09:23;;;;;;;11.93;7.40;;;;;;;8.08;100.00;100413.97;5225055;28;20032;-65
2022/04/06 04:11:56;;;;;;;7.88;6.90;;;;;;;8.07;100.00;100412.38;5223591;28;20402;-65
2022/04/06 04:14:26;;;;;;;11.75;6.68;;;;;;;8.08;100.00;100407.78;5223733;28;20033;-64
2022/04/06 04:17:01;;;;;;;16.95;8.10;;;;;;;8.06;100.00;100402.66;5223040;28;20372;-64
2022/04/06 04:19:31;;;;;;;7.80;6.70;;;;;;;8.00;100.00;100406.34;5240374;28;20025;-64
2022/04/06 04:22:03;;;;;;;8.38;7.50;;;;;;;8.04;100.00;100404.78;5225067;28;20079;-64
2022/04/06 04:24:33;;;;;;;18.52;6.63;;;;;;;7.97;100.00;100396.09;5223311;28;20108;-64
2022/04/06 04:27:04;;;;;;;12.43;8.10;;;;;;;7.94;100.00;100379.66;5240226;28;20078;-64
2022/04/06 04:29:34;;;;;;;5.88;5.38;;;;;;;7.96;100.00;100378.34;5240235;28;20532;-64
2022/04/06 04:32:05;;;;;;;7.75;5.65;;;;;;;8.02;100.00;100395.34;5240272;28;20115;-64
2022/04/06 04:34:36;;;;;;;15.00;5.53;;;;;;;8.03;100.00;100396.97;5239835;28;20121;-64
2022/04/06 04:37:07;;;;;;;7.80;6.63;;;;;;;8.02;100.00;100398.84;5240304;28;20029;-64
2022/04/06 04:39:37;;;;;;;6.85;5.97;;;;;;;8.02;100.00;100396.16;5240488;28;20132;-64
2022/04/06 04:42:08;;;;;;;6.03;5.47;;;;;;;8.02;100.00;100395.34;5240086;28;20024;-65
2022/04/06 04:44:38;;;;;;;12.02;5.40;;;;;;;8.04;100.00;100385.97;5239876;28;20032;-64
2022/04/06 04:47:09;;;;;;;10.30;5.97;;;;;;;8.04;100.00;100391.34;5239957;28;20025;-65
2022/04/06 04:49:39;;;;;;;9.43;4.70;;;;;;;8.05;100.00;100395.66;5223345;28;20132;-64
2022/04/06 04:52:10;;;;;;;4.15;3.78;;;;;;;8.06;100.00;100388.41;5223307;28;20025;-64
2022/04/06 04:54:40;;;;;;;4.50;4.05;;;;;;;8.08;100.00;100389.75;5223006;28;20564;-64
2022/04/06 04:57:11;;;;;;;6.30;3.78;;;;;;;8.09;100.00;100380.63;5223520;28;20017;-64
2022/04/06 04:59:41;;;;;;;4.35;3.67;;;;;;;8.11;100.00;100386.56;5224458;28;20029;-64
2022/04/06 05:02:11;;;;;;;6.03;4.18;;;;;;;8.11;100.00;100393.81;5223280;28;20020;-63
2022/04/06 05:04:42;;;;;;;6.03;3.78;;;;;;;8.09;100.00;100377.94;5223025;28;20032;-64
2022/04/06 05:07:12;;;;;;;6.75;4.57;;;;;;;8.07;100.00;100374.72;5223106;28;20082;-64
2022/04/06 05:09:46;;;;;;;7.85;5.63;;;;;;;8.09;100.00;100375.25;5222780;28;20041;-65
2022/04/06 05:12:16;;;;;;;7.22;5.95;;;;;;;8.11;100.00;100364.25;5239428;28;20119;-64
2022/04/06 05:14:47;;;;;;;4.93;4.38;;;;;;;8.07;100.00;100365.84;5222775;28;20035;-64
2022/04/06 05:18:15;;;;;;;16.25;6.47;;;;;;;8.08;100.00;100362.88;5222998;28;20475;-64
2022/04/06 05:20:45;;;;;;;4.38;3.97;;;;;;;7.93;100.00;100351.13;5234166;28;20037;-64
2022/04/06 05:23:15;;;;;;;22.88;5.68;;;;;;;8.09;100.00;100363.69;5222754;28;20444;-64
2022/04/06 05:25:46;;;;;;;9.80;5.03;;;;;;;8.09;100.00;100377.13;5222765;28;20052;-63
2022/04/06 05:28:18;;;;;;;12.77;5.65;;;;;;;8.08;100.00;100375.53;5225353;28;20497;-64
2022/04/06 05:30:49;;;;;;;4.97;4.30;;;;;;;8.06;100.00;100391.09;5243118;28;20032;-65
2022/04/06 05:33:19;;;;;;;9.10;5.72;;;;;;;8.06;100.00;100383.03;5222576;28;20032;-64
2022/04/06 05:35:50;;;;;;;6.72;5.18;;;;;;;8.05;100.00;100376.03;5242537;28;20032;-64
2022/04/06 05:38:20;;;;;;;13.00;6.45;;;;;;;8.04;100.00;100377.09;5243054;28;20024;-62
2022/04/06 05:40:51;;;;;;;5.63;5.10;;;;;;;8.05;100.00;100382.22;5226608;28;20032;-65
2022/04/06 05:43:22;;;;;;;7.78;5.95;;;;;;;8.06;100.00;100383.84;5242596;28;20032;-64
2022/04/06 05:45:52;;;;;;;12.25;6.00;;;;;;;8.06;100.00;100372.28;5243046;28;20029;-63
2022/04/06 05:48:22;;;;;;;10.38;5.07;;;;;;;8.06;100.00;100383.03;5226416;28;20040;-63
2022/04/06 05:50:53;;;;;;;8.93;5.85;;;;;;;8.06;100.00;100389.22;5226190;28;20041;-63
2022/04/06 05:53:23;;;;;;;5.43;4.97;;;;;;;8.07;100.00;100385.47;5225560;28;20044;-63
2022/04/06 05:55:54;;;;;;;7.28;5.63;;;;;;;8.06;100.00;100378.47;5227587;28;20025;-63
2022/04/06 05:58:24;;;;;;;5.78;5.38;;;;;;;7.96;100.00;100362.19;5226237;28;20399;-62
2022/04/06 06:00:55;;;;;;;11.65;6.10;;;;;;;8.08;100.00;100376.31;5242762;28;20104;-64
2022/04/06 06:03:26;;;;;;;5.63;5.22;;;;;;;8.08;100.00;100381.69;5242220;28;20027;-63
2022/04/06 06:05:56;;;;;;;9.57;5.40;;;;;;;8.08;100.00;100376.31;5227510;28;20165;-64
2022/04/06 06:08:30;;;;;;;7.20;6.07;;;;;;;8.07;100.00;100372.03;5242596;28;20040;-63
2022/04/06 06:11:01;;;;;;;11.98;5.55;;;;;;;8.09;100.00;100380.63;5227433;28;20509;-64
2022/04/06 06:13:32;;;;;;;10.10;6.20;;;;;;;8.10;100.00;100373.38;5242165;28;20025;-64
2022/04/06 06:16:04;;;;;;;7.30;6.45;;;;;;;8.11;100.00;100386.56;5240705;28;20558;-64
2022/04/06 06:18:35;;;;;;;6.78;5.43;;;;;;;8.10;100.00;100379.56;5226030;28;20510;-63
2022/04/06 06:21:05;;;;;;;7.63;6.95;;;;;;;8.12;100.00;100377.44;5242580;28;20033;-64
2022/04/06 06:23:36;;;;;;;5.70;5.30;;;;;;;8.13;100.00;100368.31;5242502;28;20509;-63
2022/04/06 06:26:07;;;;;;;5.03;4.72;;;;;;;8.07;100.00;100347.81;5225648;28;20398;-64
2022/04/06 06:28:43;;;;;;;12.38;5.47;;;;;;;8.19;100.00;100358.44;5227273;28;20021;-63
2022/04/06 06:31:14;;;;;;;10.88;6.13;;;;;;;8.26;100.00;100352.84;5224723;28;20025;-64
2022/04/06 06:33:45;;;;;;;6.70;4.90;;;;;;;8.33;100.00;100343.56;5226511;28;20048;-64
2022/04/06 06:36:16;;;;;;;5.40;5.07;;;;;;;8.34;100.00;100331.72;5225531;28;20178;-64
2022/04/06 06:38:47;;;;;;;8.13;5.47;;;;;;;8.48;100.00;100340.19;5224703;28;20103;-63
2022/04/06 06:41:18;;;;;;;12.25;6.00;;;;;;;8.53;100.00;100326.78;5241944;28;20044;-64
2022/04/06 06:43:50;;;;;;;9.98;4.80;;;;;;;8.58;100.00;100331.41;5241838;28;20051;-64
2022/04/06 06:46:21;;;;;;;5.38;4.88;;;;;;;8.56;100.00;100333.53;5225756;28;20032;-62
2022/04/06 06:48:52;;;;;;;8.98;4.65;;;;;;;8.58;100.00;100331.41;5225437;28;20080;-63
2022/04/06 06:51:23;;;;;;;6.63;4.45;;;;;;;8.59;100.00;100328.47;5241902;28;20032;-63
2022/04/06 06:53:54;;;;;;;4.28;3.88;;;;;;;8.51;100.00;100310.06;5206291;28;20029;-62
2022/04/06 06:56:25;;;;;;;8.63;4.70;;;;;;;8.62;100.00;100333.34;5199859;28;20030;-63
2022/04/06 06:58:55;;;;;;;8.40;4.80;;;;;;;8.70;100.00;100332.84;5183770;28;20034;-64
2022/04/06 07:01:26;;;;;;;8.80;4.45;;;;;;;8.71;100.00;100329.09;5200333;28;20029;-62
2022/04/06 07:03:56;;;;;;;18.02;5.05;;;;;;;8.70;100.00;100322.06;5183721;28;20081;-64
2022/04/06 07:06:27;;;;;;;4.00;3.70;;;;;;;8.78;100.00;100336.97;5183617;28;20018;-64
2022/04/06 07:08:58;;;;;;;8.02;4.97;;;;;;;8.84;100.00;100345.88;5196422;28;20026;-64
2022/04/06 07:11:28;;;;;;;8.95;4.63;;;;;;;8.86;100.00;100344.56;5220691;28;20510;-63
2022/04/06 07:13:59;;;;;;;7.00;3.70;;;;;;;8.87;100.00;100338.13;5210775;28;20033;-63
2022/04/06 07:16:29;;;;;;;31.45;4.75;;;;;;;8.87;100.00;100340.81;5203280;28;20030;-64
2022/04/06 07:19:00;;;;;;;12.05;4.45;;;;;;;8.87;100.00;100337.31;5200078;28;20112;-64
2022/04/06 07:21:31;;;;;;;6.38;4.30;;;;;;;8.86;100.00;100330.28;5188307;28;20022;-64
2022/04/06 07:24:03;;;;;;;7.07;3.95;;;;;;;8.78;100.00;100323.50;5202843;28;20025;-64
2022/04/06 07:26:35;;;;;;;10.90;4.82;;;;;;;8.80;100.00;100330.25;5202380;28;20018;-63
2022/04/06 07:29:09;;;;;;;5.00;3.95;;;;;;;8.79;100.00;100325.94;5192917;28;20400;-64
2022/04/06 07:31:39;;;;;;;5.50;3.55;;;;;;;8.72;100.00;100322.63;5210161;28;20201;-63
2022/04/06 07:34:10;;;;;;;5.75;3.97;;;;;;;8.73;100.00;100323.44;5182784;28;20021;-63
2022/04/06 07:36:41;;;;;;;7.55;4.05;;;;;;;8.72;100.00;100325.31;5218983;28;20017;-63
2022/04/06 07:39:11;;;;;;;10.77;4.60;;;;;;;8.70;100.00;100319.38;5203698;28;20503;-63
2022/04/06 07:41:42;;;;;;;18.58;4.70;;;;;;;8.71;100.00;100320.19;5220300;28;20124;-63
2022/04/06 07:44:12;;;;;;;8.10;4.50;;;;;;;8.56;100.00;100293.97;5203955;28;20554;-62
2022/04/06 07:46:43;;;;;;;12.20;2.88;;;;;;;8.76;100.00;100314.84;5213579;28;20033;-63
2022/04/06 07:49:13;;;;;;;8.98;4.57;;;;;;;8.80;100.00;100306.03;5203637;28;20064;-63
2022/04/06 07:51:45;;;;;;;5.38;4.43;;;;;;;8.89;100.00;100310.94;5219956;28;20029;-63
2022/04/06 07:54:16;;;;;;;7.13;5.03;;;;;;;8.89;100.00;100278.63;5219758;28;20506;-63
2022/04/06 07:56:47;;;;;;;3.22;3.03;;;;;;;9.10;100.00;100283.06;5206883;28;20030;-63
2022/04/06 07:59:18;;;;;;;9.77;4.80;;;;;;;9.42;100.00;100305.34;5185750;28;20113;-64
2022/04/06 08:01:48;;;;;;;4.53;4.13;;;;;;;9.48;100.00;100287.31;5182806;28;20125;-64
2022/04/06 08:04:18;;;;;;;4.25;3.88;;;;;;;9.71;100.00;100313.00;5199012;28;20049;-63
2022/04/06 08:06:49;;;;;;;6.30;3.75;;;;;;;9.97;100.00;100301.25;5182658;28;20026;-63
2022/04/06 08:09:19;;;;;;;6.95;4.20;;;;;;;10.09;100.00;100290.22;5182837;28;20057;-62
2022/04/06 08:11:50;;;;;;;3.60;3.40;;;;;;;10.08;100.00;100288.59;5184175;28;20041;-63
2022/04/06 08:14:21;;;;;;;4.75;4.35;;;;;;;10.09;100.00;100298.31;5182264;28;20491;-65
2022/04/06 08:16:51;;;;;;;8.02;3.25;;;;;;;10.07;100.00;100301.28;5213572;23;20198;-83
2022/04/06 08:19:25;;;;;;;3.17;3.08;;;;;;;10.02;100.00;100265.38;5209875;28;20076;-86
2022/04/06 08:21:56;;;;;;;4.25;3.60;;;;;;;10.11;100.00;100302.34;5226024;28;20485;-84
2022/04/06 08:24:27;;;;;;;7.60;3.15;;;;;;;9.88;100.00;100246.19;5217321;28;20105;-84
2022/04/06 08:26:57;;;;;;;11.88;4.85;;;;;;;10.02;100.00;100285.06;5195915;28;20029;-83
2022/04/06 08:29:28;;;;;;;4.28;3.72;;;;;;;9.79;100.00;100261.28;5193376;28;20085;-83
2022/04/06 08:31:58;;;;;;;3.63;3.33;;;;;;;9.51;100.00;100251.75;5196199;28;20089;-85
2022/04/06 08:34:28;;;;;;;4.97;3.45;;;;;;;9.57;100.00;100274.94;5179964;28;20023;-84
2022/04/06 08:36:59;;;;;;;3.10;2.80;;;;;;;9.68;100.00;100289.28;5175617;28;20033;-84
2022/04/06 08:39:29;;;;;;;3.45;3.17;;;;;;;9.38;100.00;100249.53;5174319;28;20018;-85
2022/04/06 08:42:00;;;;;;;2.75;2.55;;;;;;;9.60;100.00;100293.28;5175851;28;20030;-84
2022/04/06 08:44:31;;;;;;;3.92;3.63;;;;;;;9.45;100.00;100277.88;5174299;28;20033;-83
2022/04/06 08:47:06;;;;;;;5.75;3.53;;;;;;;9.35;100.00;100272.41;5175879;28;20033;-84
2022/04/06 08:49:36;;;;;;;3.70;3.35;;;;;;;9.29;100.00;100251.09;5173732;28;20629;-85
2022/04/06 08:52:09;;;;;;;3.53;3.30;;;;;;;9.51;100.00;100283.28;5175132;28;20034;-84
2022/04/06 08:54:40;;;;;;;3.75;3.35;;;;;;;9.14;100.00;100227.59;5174697;28;20027;-81
2022/04/06 08:57:10;;;;;;;9.57;4.78;;;;;;;9.34;100.00;100254.63;5175508;28;20089;-83
2022/04/06 08:59:41;;;;;;;8.50;3.90;;;;;;;9.47;100.00;100258.75;5175693;28;20035;-83
2022/04/06 09:02:17;;;;;;;6.65;4.32;;;;;;;9.55;100.00;100282.47;5174754;28;20026;-84
2022/04/06 09:04:55;;;;;;;7.10;4.63;;;;;;;9.59;100.00;100277.38;5178378;28;20417;-84
2022/04/06 09:07:25;;;;;;;3.45;3.25;;;;;;;9.60;100.00;100276.28;5191790;28;20117;-84
2022/04/06 09:09:56;;;;;;;4.43;4.05;;;;;;;9.53;100.00;100262.28;5176657;28;20042;-83
2022/04/06 09:12:28;;;;;;;4.07;3.78;;;;;;;9.70;100.00;100271.75;5177894;28;20391;-84
2022/04/06 09:15:10;;;;;;;7.75;3.58;;;;;;;9.57;100.00;100250.69;5178650;28;20029;-83
2022/04/06 09:17:49;;;;;;;4.72;3.17;;;;;;;9.49;100.00;100229.66;5195662;28;20613;-83
2022/04/06 09:20:24;;;;;;;3.80;3.57;;;;;;;9.79;100.00;100266.69;5181931;28;20026;-84
2022/04/06 09:22:55;;;;;;;7.00;4.80;;;;;;;9.77;100.00;100242.69;5199885;28;21107;-84
2022/04/06 09:25:25;;;;;;;18.50;4.68;;;;;;;9.92;100.00;100247.28;5201584;28;20021;-84
2022/04/06 09:27:56;;;;;;;6.18;3.22;;;;;;;10.12;100.00;100260.78;5199455;28;20026;-83
2022/04/06 09:30:32;;;;;;;4.47;2.67;;;;;;;10.24;100.00;100241.69;5198962;28;20026;-83
2022/04/06 09:33:03;;;;;;;4.53;3.08;;;;;;;10.52;100.00;100264.66;5181742;28;20038;-81
2022/04/06 09:35:37;;;;;;;3.47;3.38;;;;;;;10.55;100.00;100204.72;5197036;28;20056;-83
2022/04/06 09:38:08;;;;;;;5.43;3.10;;;;;;;11.20;100.00;100270.50;5178874;28;20030;-83
2022/04/06 09:40:42;;;;;;;3.17;2.80;;;;;;;11.25;100.00;100261.59;5198817;28;20021;-84
2022/04/06 09:43:27;;;;;;;4.57;3.90;;;;;;;11.16;100.00;100218.09;5219860;28;20033;-83
2022/04/06 09:49:18;;;;;;;3.55;2.70;;;;;;;11.16;100.00;100227.00;5220589;28;20179;-83
2022/04/06 09:51:50;;;;;;;4.25;2.72;;;;;;;11.13;100.00;100243.78;5222138;28;20076;-83
2022/04/06 09:54:26;;;;;;;8.95;3.97;;;;;;;10.91;100.00;100220.88;5218661;28;20044;-85
2022/04/06 09:56:57;;;;;;;3.05;2.88;;;;;;;10.96;100.00;100228.97;5204493;28;20060;-84
2022/04/06 09:59:29;;;;;;;8.13;3.67;;;;;;;10.99;100.00;100264.31;5224693;28;20029;-84
2022/04/06 10:02:07;;;;;;;11.05;3.95;;;;;;;10.99;100.00;100253.53;5206017;28;20135;-84
2022/04/06 10:04:39;;;;;;;2.72;2.55;;;;;;;11.12;100.00;100268.38;5224700;28;20021;-84
2022/04/06 10:07:10;;;;;;;3.55;3.42;;;;;;;11.04;100.00;100236.50;5205717;28;20114;-84
2022/04/06 10:09:41;;;;;;;4.88;3.53;;;;;;;11.14;100.00;100245.38;5222378;28;20013;-85
2022/04/06 10:12:12;;;;;;;4.43;2.83;;;;;;;11.14;100.00;100244.59;5203218;28;20029;-84
2022/04/06 10:14:44;;;;;;;4.00;3.70;;;;;;;10.94;100.00;100213.03;5217852;28;20028;-84
2022/04/06 10:17:16;;;;;;;4.65;4.32;;;;;;;11.11;100.00;100237.81;5201227;28;20025;-84
2022/04/06 10:19:51;;;;;;;4.20;3.90;;;;;;;11.09;100.00;100236.47;5201023;28;20056;-84
2022/04/06 10:22:38;;;;;;;12.02;4.45;;;;;;;10.80;100.00;100196.56;5218475;28;20087;-84
2022/04/06 10:25:44;;;;;;;4.35;3.17;;;;;;;11.11;100.00;100231.63;5200587;28;20029;-80
2022/04/06 10:28:16;;;;;;;3.75;3.15;;;;;;;11.07;100.00;100225.94;5218572;28;20033;-83
2022/04/06 10:31:12;;;;;;;6.20;4.13;;;;;;;11.03;100.00;100219.47;5201517;28;20302;-84
2022/04/06 10:33:44;;;;;;;6.40;3.08;;;;;;;10.76;100.00;100202.78;5218526;28;20052;-84
2022/04/06 10:36:29;;;;;;;5.95;4.35;;;;;;;10.99;100.00;100221.09;5200901;28;20039;-84
2022/04/06 10:39:06;;;;;;;8.23;3.13;;;;;;;11.14;100.00;100222.97;5218165;28;20036;-83
2022/04/06 10:41:41;;;;;;;3.45;2.67;;;;;;;11.03;100.00;100208.66;5199113;28;20091;-83
2022/04/06 10:44:37;;;;;;;6.72;3.67;;;;;;;11.00;100.00;100224.59;5216014;28;20037;-82
2022/04/06 10:47:09;;;;;;;5.95;4.53;;;;;;;10.75;100.00;100166.88;5198709;28;20575;-83
2022/04/06 10:49:40;;;;;;;9.13;5.13;;;;;;;10.99;100.00;100210.28;5216998;28;20025;-83
2022/04/06 10:52:25;;;;;;;6.75;3.72;;;;;;;10.90;100.00;100221.94;5198886;28;20032;-83
2022/04/06 10:54:58;;;;;;;4.35;3.35;;;;;;;10.97;100.00;100206.28;5216426;28;20041;-84
2022/04/06 10:58:15;;;;;;;3.72;3.50;;;;;;;11.08;100.00;100208.66;5199869;28;20025;-84
2022/04/06 11:01:25;;;;;;;3.47;3.28;;;;;;;11.25;100.00;100194.81;5213789;28;20041;-84
2022/04/06 11:04:11;;;;;;;8.60;4.55;;;;;;;11.53;100.00;100193.34;5204443;28;20033;-84
2022/04/06 11:06:44;;;;;;;6.35;4.88;;;;;;;11.65;100.00;100188.41;5202293;28;20087;-84
2022/04/06 11:12:20;;;;;;;4.63;3.58;;;;;;;11.54;100.00;100184.16;5218292;28;20080;-84
2022/04/06 11:15:00;;;;;;;4.38;4.13;;;;;;;11.55;100.00;100185.75;5217218;28;20033;-84
2022/04/06 11:20:16;;;;;;;4.70;3.80;;;;;;;11.52;100.00;100185.50;5222962;28;20081;-83
2022/04/06 11:22:46;;;;;;;6.47;4.78;;;;;;;11.53;100.00;100187.13;5200734;28;20040;-82
2022/04/06 11:25:20;;;;;;;5.20;3.35;;;;;;;10.93;100.00;100094.44;5217668;28;20021;-82
2022/04/06 11:27:50;;;;;;;5.55;4.25;;;;;;;11.32;100.00;100160.19;5219381;28;20025;-80
2022/04/06 11:30:26;;;;;;;3.92;3.63;;;;;;;11.51;100.00;100176.59;5218201;28;20049;-81
2022/04/06 11:32:58;;;;;;;4.00;3.63;;;;;;;11.22;100.00;100121.59;5219908;28;20067;-84
2022/04/06 11:35:35;;;;;;;4.07;3.80;;;;;;;11.38;100.00;100167.19;5219075;28;20049;-83
2022/04/06 11:38:10;;;;;;;7.50;5.10;;;;;;;10.88;100.00;100111.47;5202972;28;20025;-84
2022/04/06 11:40:42;;;;;;;3.72;3.42;;;;;;;11.09;100.00;100160.81;5220565;28;20040;-84
2022/04/06 11:43:12;;;;;;;6.75;4.35;;;;;;;10.92;100.00;100125.25;5220696;28;20025;-79
2022/04/06 11:45:47;;;;;;;8.27;3.70;;;;;;;10.62;100.00;100083.75;5221026;28;20085;-84
2022/04/06 11:48:17;;;;;;;3.90;3.65;;;;;;;11.10;100.00;100140.81;5202048;28;20112;-82
2022/04/06 11:50:49;;;;;;;20.20;5.03;;;;;;;11.17;100.00;100173.78;5201485;28;20048;-81
2022/04/06 11:53:19;;;;;;;3.28;3.08;;;;;;;10.60;100.00;100121.03;5209603;28;20075;-84
2022/04/06 11:55:54;;;;;;;4.97;4.20;;;;;;;10.67;100.00;100137.75;5218828;28;20029;-81
2022/04/06 11:58:41;;;;;;;4.90;4.30;;;;;;;10.87;100.00;100160.38;5215686;28;20093;-84
2022/04/06 12:01:15;;;;;;;13.98;5.35;;;;;;;10.77;100.00;100164.72;5217394;28;20045;-84